createdAt,value
2023-01-20T00:01:47.497Z,24.12
2023-01-20T00:04:18.450Z,24.55
2023-01-20T00:06:47.482Z,19.80
2023-01-20T00:09:17.301Z,23.40
2023-01-20T00:11:46.945Z,24.10
2023-01-20T00:14:15.800Z,31.10
2023-01-20T00:16:44.630Z,26.70
2023-01-20T00:19:14.333Z,24.10
2023-01-20T00:21:43.927Z,24.05
2023-01-20T00:24:13.049Z,27.90
2023-01-20T00:26:41.587Z,24.10
2023-01-20T00:29:10.489Z,25.55
2023-01-20T00:31:39.175Z,29.65
2023-01-20T00:34:10.097Z,27.07
2023-01-20T00:36:39.112Z,25.75
2023-01-20T00:39:08.048Z,25.80
2023-01-20T00:41:37.575Z,26.42
2023-01-20T00:44:06.359Z,26.85
2023-01-20T00:46:35.460Z,26.95
2023-01-20T00:49:04.665Z,30.72
2023-01-20T00:51:33.834Z,25.40
2023-01-20T00:54:02.692Z,22.58
2023-01-20T00:56:31.481Z,26.93
2023-01-20T00:59:01.183Z,27.90
2023-01-20T01:01:30.306Z,25.12
2023-01-20T01:03:59.341Z,36.00
2023-01-20T01:06:29.616Z,19.57
2023-01-20T01:08:59.973Z,22.52
2023-01-20T01:11:28.627Z,23.87
2023-01-20T01:13:57.569Z,20.82
2023-01-20T01:16:26.560Z,30.90
2023-01-20T01:18:55.705Z,26.55
2023-01-20T01:21:24.573Z,25.45
2023-01-20T01:23:53.933Z,25.75
2023-01-20T01:26:23.737Z,24.02
2023-01-20T01:28:53.465Z,28.50
2023-01-20T01:31:24.258Z,30.82
2023-01-20T01:33:53.173Z,26.37
2023-01-20T01:36:21.919Z,28.15
2023-01-20T01:38:57.960Z,29.67
2023-01-20T01:41:21.014Z,26.55
2023-01-20T01:44:10.592Z,21.52
2023-01-20T01:46:40.351Z,23.70
2023-01-20T01:49:17.170Z,28.10
2023-01-20T01:51:57.434Z,23.38
2023-01-20T01:54:38.479Z,27.77
2023-01-20T01:57:07.234Z,24.63
2023-01-20T01:59:36.015Z,21.42
2023-01-20T02:02:04.719Z,20.85
2023-01-20T02:04:34.987Z,25.20
2023-01-20T02:07:15.190Z,29.10
2023-01-20T02:09:45.235Z,23.47
2023-01-20T02:12:18.630Z,20.88
2023-01-20T02:14:54.354Z,26.05
2023-01-20T02:17:34.596Z,23.42
2023-01-20T02:20:17.906Z,23.25
2023-01-20T02:23:28.962Z,21.62
2023-01-20T02:26:03.339Z,28.55
2023-01-20T02:29:08.041Z,18.50
2023-01-20T02:32:11.312Z,22.37
2023-01-20T02:35:01.780Z,24.45
2023-01-20T02:38:06.644Z,26.57
2023-01-20T02:40:50.270Z,25.30
2023-01-20T02:43:24.843Z,29.32
2023-01-20T02:45:59.407Z,21.62
2023-01-20T02:48:48.934Z,20.75
2023-01-20T02:51:27.757Z,24.02
2023-01-20T02:54:00.977Z,23.98
2023-01-20T02:56:30.132Z,22.60
2023-01-20T02:59:06.411Z,23.67
2023-01-20T03:01:42.176Z,21.60
2023-01-20T03:04:12.342Z,25.20
2023-01-20T03:06:44.252Z,26.15
2023-01-20T03:09:16.354Z,22.80
2023-01-20T03:11:50.750Z,23.00
2023-01-20T03:14:19.642Z,30.30
2023-01-20T03:16:50.086Z,19.87
2023-01-20T03:19:20.522Z,30.57
2023-01-20T03:21:49.557Z,23.25
2023-01-20T03:24:18.816Z,23.62
2023-01-20T03:26:47.470Z,23.52
2023-01-20T03:29:18.058Z,22.73
2023-01-20T03:31:56.560Z,24.65
2023-01-20T03:34:26.423Z,23.65
2023-01-20T03:36:55.620Z,22.90
2023-01-20T03:39:24.407Z,24.47
2023-01-20T03:42:10.602Z,23.95
2023-01-20T03:45:03.337Z,24.67
2023-01-20T03:47:53.108Z,23.95
2023-01-20T03:50:39.692Z,24.87
2023-01-20T03:53:30.849Z,20.50
2023-01-20T03:56:14.334Z,20.30
2023-01-20T03:58:45.655Z,25.00
2023-01-20T04:01:18.099Z,23.50
2023-01-20T04:03:47.626Z,21.77
2023-01-20T04:06:17.021Z,22.40
2023-01-20T04:08:56.607Z,23.65
2023-01-20T04:11:26.928Z,23.60
2023-01-20T04:13:55.703Z,21.77
2023-01-20T04:16:24.600Z,20.40
2023-01-20T04:18:53.646Z,22.75
2023-01-20T04:21:43.267Z,24.57
2023-01-20T04:24:28.919Z,20.48
2023-01-20T04:26:58.546Z,20.27
2023-01-20T04:29:28.349Z,25.82
2023-01-20T04:32:01.692Z,23.35
2023-01-20T04:34:31.006Z,20.88
2023-01-20T04:36:59.782Z,21.45
2023-01-20T04:39:28.565Z,25.88
2023-01-20T04:41:58.611Z,25.05
2023-01-20T04:44:27.523Z,20.45
2023-01-20T04:46:59.237Z,26.10
2023-01-20T04:49:27.966Z,20.77
2023-01-20T04:51:56.720Z,20.43
2023-01-20T04:54:25.726Z,22.35
2023-01-20T04:56:54.741Z,20.72
2023-01-20T04:59:24.681Z,22.02
2023-01-20T05:01:54.003Z,16.45
2023-01-20T05:04:24.421Z,16.90
2023-01-20T05:06:53.756Z,16.27
2023-01-20T05:09:23.020Z,20.30
2023-01-20T05:11:52.312Z,16.40
2023-01-20T05:14:21.981Z,21.68
2023-01-20T05:16:50.947Z,19.23
2023-01-20T05:19:19.981Z,20.95
2023-01-20T05:21:49.061Z,20.15
2023-01-20T05:24:18.049Z,20.72
2023-01-20T05:26:47.318Z,21.82
2023-01-20T05:29:16.767Z,18.55
2023-01-20T05:31:45.689Z,18.50
2023-01-20T05:34:16.563Z,17.48
2023-01-20T05:36:46.561Z,15.65
2023-01-20T05:39:15.914Z,17.82
2023-01-20T05:41:46.437Z,19.23
2023-01-20T05:44:16.055Z,18.17
2023-01-20T05:46:45.101Z,23.85
2023-01-20T05:49:14.774Z,19.82
2023-01-20T05:51:43.498Z,17.92
2023-01-20T05:54:12.821Z,17.48
2023-01-20T05:56:42.025Z,20.90
2023-01-20T05:59:11.395Z,21.12
2023-01-20T06:01:40.321Z,21.57
2023-01-20T06:04:09.736Z,22.25
2023-01-20T06:06:39.231Z,23.62
2023-01-20T06:09:10.218Z,15.63
2023-01-20T06:11:39.351Z,18.50
2023-01-20T06:14:08.894Z,18.37
2023-01-20T06:16:39.754Z,20.17
2023-01-20T06:19:09.849Z,20.60
2023-01-20T06:21:39.503Z,20.68
2023-01-20T06:24:09.436Z,21.55
2023-01-20T06:26:38.537Z,28.15
2023-01-20T06:29:07.815Z,18.60
2023-01-20T06:31:38.734Z,22.02
2023-01-20T06:34:07.359Z,19.82
2023-01-20T06:36:36.569Z,27.25
2023-01-20T06:39:11.880Z,24.57
2023-01-20T06:41:40.426Z,20.37
2023-01-20T06:44:09.801Z,24.90
2023-01-20T06:46:38.494Z,23.32
2023-01-20T06:49:07.689Z,17.70
2023-01-20T06:51:36.679Z,21.40
2023-01-20T06:54:05.559Z,24.27
2023-01-20T06:56:35.154Z,19.95
2023-01-20T06:59:04.505Z,17.90
2023-01-20T07:01:34.188Z,23.57
2023-01-20T07:04:03.573Z,19.70
2023-01-20T07:06:35.652Z,16.55
2023-01-20T07:09:07.291Z,18.30
2023-01-20T07:11:36.167Z,16.23
2023-01-20T07:14:05.546Z,19.45
2023-01-20T07:16:34.701Z,20.97
2023-01-20T07:19:04.321Z,21.25
2023-01-20T07:21:34.174Z,22.67
2023-01-20T07:24:03.729Z,22.05
2023-01-20T07:26:32.374Z,24.20
2023-01-20T07:29:01.979Z,19.95
2023-01-20T07:31:31.925Z,24.92
2023-01-20T07:34:01.899Z,17.87
2023-01-20T07:36:30.861Z,17.80
2023-01-20T07:38:59.898Z,17.02
2023-01-20T07:41:29.417Z,21.27
2023-01-20T07:43:58.354Z,20.35
2023-01-20T07:46:27.811Z,21.30
2023-01-20T07:48:57.355Z,26.07
2023-01-20T07:51:26.756Z,16.07
2023-01-20T07:53:56.747Z,23.52
2023-01-20T07:56:27.662Z,16.30
2023-01-20T07:58:58.137Z,20.95
2023-01-20T08:01:31.946Z,18.35
2023-01-20T08:04:01.267Z,17.27
2023-01-20T08:06:31.488Z,16.62
2023-01-20T08:09:03.065Z,16.65
2023-01-20T08:11:32.529Z,17.07
2023-01-20T08:14:01.244Z,18.42
2023-01-20T08:16:31.320Z,15.93
2023-01-20T08:19:00.255Z,19.60
2023-01-20T08:21:31.475Z,19.30
2023-01-20T08:24:02.348Z,20.15
2023-01-20T08:26:31.826Z,19.07
2023-01-20T08:29:08.471Z,17.90
2023-01-20T08:31:38.417Z,18.15
2023-01-20T08:34:07.861Z,22.62
2023-01-20T08:36:37.789Z,21.15
2023-01-20T08:39:10.241Z,15.03
2023-01-20T08:41:39.500Z,21.40
2023-01-20T08:44:08.638Z,21.15
2023-01-20T08:46:40.472Z,22.00
2023-01-20T08:49:15.741Z,26.50
2023-01-20T08:51:45.365Z,25.75
2023-01-20T08:54:14.996Z,25.50
2023-01-20T08:56:44.807Z,21.07
2023-01-20T08:59:14.401Z,20.30
2023-01-20T09:01:44.681Z,19.62
2023-01-20T09:04:13.784Z,24.50
2023-01-20T09:06:46.451Z,15.95
2023-01-20T09:09:16.922Z,22.02
2023-01-20T09:11:47.919Z,19.32
2023-01-20T09:14:22.488Z,23.15
2023-01-20T09:16:51.615Z,20.95
2023-01-20T09:19:21.024Z,24.98
2023-01-20T09:21:50.294Z,21.60
2023-01-20T09:24:20.574Z,29.57
2023-01-20T09:26:53.629Z,20.23
2023-01-20T09:29:23.780Z,23.07
2023-01-20T09:32:00.394Z,22.60
2023-01-20T09:34:37.384Z,20.55
2023-01-20T09:37:36.154Z,20.08
2023-01-20T09:40:35.232Z,18.27
2023-01-20T09:43:42.968Z,20.92
2023-01-20T09:46:35.543Z,18.30
2023-01-20T09:49:49.605Z,19.95
2023-01-20T09:53:01.854Z,19.42
2023-01-20T09:55:50.764Z,25.15
2023-01-20T09:58:46.052Z,17.77
2023-01-20T10:01:55.044Z,24.12
2023-01-20T10:05:01.104Z,17.75
2023-01-20T10:07:40.756Z,20.60
2023-01-20T10:10:29.183Z,21.97
2023-01-20T10:13:16.584Z,20.37
2023-01-20T10:15:51.367Z,24.30
2023-01-20T10:18:46.651Z,19.60
2023-01-20T10:21:25.762Z,20.68
2023-01-20T10:24:04.119Z,14.83
2023-01-20T10:27:06.181Z,22.82
2023-01-20T10:30:07.706Z,20.77
2023-01-20T10:32:56.762Z,20.05
2023-01-20T10:38:04.119Z,19.57
2023-01-20T10:40:58.324Z,18.37
2023-01-20T10:43:30.516Z,22.58
2023-01-20T10:46:23.402Z,22.35
2023-01-20T10:49:36.314Z,16.27
2023-01-20T10:52:17.531Z,19.90
2023-01-20T10:55:35.098Z,20.17
2023-01-20T10:58:30.018Z,21.70
2023-01-20T11:01:12.828Z,19.02
2023-01-20T11:03:47.392Z,17.95
2023-01-20T11:06:22.528Z,17.75
2023-01-20T11:08:51.200Z,26.00
2023-01-20T11:11:25.299Z,20.12
2023-01-20T11:13:57.428Z,17.42
2023-01-20T11:16:30.641Z,21.20
2023-01-20T11:21:46.364Z,19.67
2023-01-20T11:24:45.079Z,25.95
2023-01-20T11:27:18.765Z,19.73
2023-01-20T11:30:11.402Z,18.27
2023-01-20T11:32:42.756Z,22.58
2023-01-20T11:35:26.909Z,20.17
2023-01-20T11:37:57.646Z,22.80
2023-01-20T11:40:35.921Z,31.40
2023-01-20T11:43:10.570Z,33.13
2023-01-20T11:45:40.363Z,33.28
2023-01-20T11:48:17.578Z,26.90
2023-01-20T11:50:57.093Z,23.27
2023-01-20T11:53:33.211Z,23.30
2023-01-20T11:56:19.722Z,20.17
2023-01-20T11:58:57.406Z,17.87
2023-01-20T12:01:28.886Z,20.20
2023-01-20T12:04:12.146Z,21.55
2023-01-20T12:07:03.304Z,17.70
2023-01-20T12:09:41.977Z,21.23
2023-01-20T12:12:17.852Z,22.37
2023-01-20T12:14:54.898Z,31.45
2023-01-20T12:17:50.609Z,21.05
2023-01-20T12:20:58.883Z,18.82
2023-01-20T12:23:52.289Z,17.37
2023-01-20T12:26:23.155Z,18.17
2023-01-20T12:29:05.027Z,24.07
2023-01-20T12:31:36.829Z,16.25
2023-01-20T12:34:12.978Z,20.08
2023-01-20T12:37:25.459Z,20.00
2023-01-20T12:40:07.594Z,28.12
2023-01-20T12:42:51.823Z,20.20
2023-01-20T12:45:48.823Z,23.20
2023-01-20T12:48:45.371Z,30.70
2023-01-20T12:51:46.173Z,28.45
2023-01-20T12:54:48.637Z,24.63
2023-01-20T13:00:42.120Z,23.38
2023-01-20T13:03:50.288Z,25.88
2023-01-20T13:06:50.550Z,24.55
2023-01-20T13:09:54.987Z,27.48
2023-01-20T13:12:54.887Z,30.05
2023-01-20T13:15:49.655Z,25.57
2023-01-20T13:18:39.980Z,27.70
2023-01-20T13:21:20.679Z,25.23
2023-01-20T13:23:51.109Z,19.12
2023-01-20T13:26:26.217Z,25.35
2023-01-20T13:29:00.654Z,20.37
2023-01-20T13:31:46.551Z,19.15
2023-01-20T13:34:31.188Z,17.17
2023-01-20T13:37:19.103Z,16.42
2023-01-20T13:39:49.524Z,17.20
2023-01-20T13:42:42.784Z,16.67
2023-01-20T13:45:22.714Z,16.97
2023-01-20T13:48:09.457Z,17.98
2023-01-20T13:50:41.446Z,15.20
2023-01-20T13:53:32.537Z,20.75
2023-01-20T13:56:38.434Z,13.00
2023-01-20T13:59:12.164Z,21.30
2023-01-20T14:01:40.950Z,18.75
2023-01-20T14:04:20.511Z,18.77
2023-01-20T14:06:53.562Z,16.62
2023-01-20T14:09:24.428Z,17.23
2023-01-20T14:11:56.779Z,21.35
2023-01-20T14:14:26.371Z,23.42
2023-01-20T14:16:56.931Z,19.00
2023-01-20T14:19:34.793Z,16.60
2023-01-20T14:22:19.585Z,20.37
2023-01-20T14:24:53.497Z,20.97
2023-01-20T14:27:35.696Z,22.25
2023-01-20T14:30:24.199Z,22.45
2023-01-20T14:32:53.619Z,23.02
2023-01-20T14:35:34.521Z,28.05
2023-01-20T14:38:06.968Z,31.05
2023-01-20T14:40:37.343Z,26.70
2023-01-20T14:43:19.323Z,21.73
2023-01-20T14:45:52.838Z,22.77
2023-01-20T14:48:33.796Z,23.52
2023-01-20T14:50:57.313Z,26.75
2023-01-20T14:53:27.314Z,24.57
2023-01-20T14:56:09.336Z,29.50
2023-01-20T14:58:42.777Z,24.02
2023-01-20T15:01:19.999Z,24.43
2023-01-20T15:03:58.280Z,26.85
2023-01-20T15:06:27.453Z,19.12
2023-01-20T15:09:06.651Z,26.85
2023-01-20T15:11:30.374Z,29.18
2023-01-20T15:14:09.443Z,27.77
2023-01-20T15:16:49.287Z,32.38
2023-01-20T15:19:32.292Z,28.83
2023-01-20T15:22:21.142Z,28.55
2023-01-20T15:24:50.443Z,33.67
2023-01-20T15:27:30.291Z,33.55
2023-01-20T15:30:16.165Z,26.07
2023-01-20T15:32:47.915Z,31.12
2023-01-20T15:35:20.466Z,42.38
2023-01-20T15:38:03.895Z,37.70
2023-01-20T15:40:35.414Z,37.98
2023-01-20T15:43:16.004Z,38.25
2023-01-20T15:45:45.366Z,26.68
2023-01-20T15:48:21.019Z,29.80
2023-01-20T15:50:50.807Z,30.08
2023-01-20T15:53:22.436Z,39.35
2023-01-20T15:55:52.653Z,33.40
2023-01-20T15:58:27.051Z,28.95
2023-01-20T16:01:01.257Z,19.65
2023-01-20T16:03:35.306Z,19.50
2023-01-20T16:06:16.861Z,18.73
2023-01-20T16:08:48.988Z,20.72
2023-01-20T16:11:18.963Z,20.23
2023-01-20T16:13:49.151Z,19.32
2023-01-20T16:16:24.226Z,15.03
2023-01-20T16:18:53.669Z,17.25
2023-01-20T16:21:22.857Z,18.90
2023-01-20T16:23:52.425Z,17.65
2023-01-20T16:26:27.255Z,19.52
2023-01-20T16:28:57.483Z,18.45
2023-01-20T16:31:27.447Z,19.27
2023-01-20T16:33:57.004Z,17.85
2023-01-20T16:36:27.529Z,19.92
2023-01-20T16:38:59.607Z,17.55
2023-01-20T16:41:30.656Z,20.57
2023-01-20T16:43:59.559Z,25.82
2023-01-20T16:46:30.080Z,18.75
2023-01-20T16:49:01.188Z,25.70
2023-01-20T16:51:31.322Z,17.32
2023-01-20T16:54:02.584Z,21.75
2023-01-20T16:56:33.911Z,19.77
2023-01-20T16:59:03.342Z,19.65
2023-01-20T17:01:32.924Z,22.32
2023-01-20T17:04:03.250Z,20.05
2023-01-20T17:06:37.666Z,25.75
2023-01-20T17:09:12.697Z,21.62
2023-01-20T17:11:42.581Z,23.12
2023-01-20T17:14:11.441Z,18.92
2023-01-20T17:16:40.582Z,25.10
2023-01-20T17:19:10.932Z,21.90
2023-01-20T17:21:40.468Z,21.50
2023-01-20T17:24:11.721Z,19.32
2023-01-20T17:26:41.344Z,23.80
2023-01-20T17:29:10.695Z,24.87
2023-01-20T17:31:42.119Z,23.42
2023-01-20T17:34:12.169Z,23.52
2023-01-20T17:36:42.391Z,20.82
2023-01-20T17:39:11.056Z,23.10
2023-01-20T17:41:40.610Z,22.20
2023-01-20T17:44:09.612Z,24.70
2023-01-20T17:46:39.169Z,21.40
2023-01-20T17:49:08.538Z,24.10
2023-01-20T17:51:38.624Z,23.77
2023-01-20T17:54:09.653Z,25.15
2023-01-20T17:56:38.841Z,23.80
2023-01-20T17:59:07.631Z,20.90
2023-01-20T18:01:36.658Z,21.80
2023-01-20T18:04:06.785Z,18.87
2023-01-20T18:06:39.118Z,18.52
2023-01-20T18:09:18.618Z,22.13
2023-01-20T18:11:48.395Z,19.17
2023-01-20T18:14:17.222Z,22.13
2023-01-20T18:16:47.870Z,25.25
2023-01-20T18:19:19.309Z,20.90
2023-01-20T18:21:50.075Z,20.08
2023-01-20T18:24:18.897Z,19.87
2023-01-20T18:26:47.984Z,21.10
2023-01-20T18:29:17.182Z,23.27
2023-01-20T18:31:47.183Z,22.75
2023-01-20T18:34:16.209Z,22.60
2023-01-20T18:36:46.844Z,23.92
2023-01-20T18:39:19.585Z,19.98
2023-01-20T18:41:49.038Z,19.05
2023-01-20T18:44:18.168Z,21.70
2023-01-20T18:46:46.914Z,21.42
2023-01-20T18:49:16.750Z,21.17
2023-01-20T18:51:45.662Z,19.67
2023-01-20T18:54:18.194Z,21.40
2023-01-20T18:56:47.691Z,21.50
2023-01-20T18:59:17.174Z,23.75
2023-01-20T19:01:48.337Z,25.02
2023-01-20T19:04:18.452Z,22.13
2023-01-20T19:06:48.396Z,25.65
2023-01-20T19:09:17.132Z,24.80
2023-01-20T19:11:45.912Z,29.25
2023-01-20T19:14:15.176Z,24.95
2023-01-20T19:16:49.238Z,27.85
2023-01-20T19:19:19.240Z,27.13
2023-01-20T19:21:51.880Z,25.97
2023-01-20T19:24:21.046Z,27.98
2023-01-20T19:26:51.495Z,26.62
2023-01-20T19:29:20.437Z,27.90
2023-01-20T19:31:51.431Z,30.68
2023-01-20T19:34:21.113Z,30.50
2023-01-20T19:36:51.221Z,29.23
2023-01-20T19:39:20.567Z,32.78
2023-01-20T19:41:49.651Z,30.95
2023-01-20T19:44:19.073Z,30.02
2023-01-20T19:46:49.305Z,34.45
2023-01-20T19:49:21.368Z,32.75
2023-01-20T19:51:51.699Z,31.35
2023-01-20T19:54:20.726Z,29.35
2023-01-20T19:56:49.814Z,34.78
2023-01-20T19:59:18.959Z,30.50
2023-01-20T20:01:47.830Z,37.83
2023-01-20T20:04:20.146Z,35.50
2023-01-20T20:06:49.081Z,33.75
2023-01-20T20:09:20.542Z,33.42
2023-01-20T20:11:49.648Z,38.08
2023-01-20T20:14:21.163Z,37.83
2023-01-20T20:16:51.236Z,38.60
2023-01-20T20:19:20.399Z,35.55
2023-01-20T20:21:49.209Z,35.55
2023-01-20T20:24:18.446Z,36.95
2023-01-20T20:26:48.260Z,38.80
2023-01-20T20:29:18.208Z,33.13
2023-01-20T20:31:47.295Z,36.65
2023-01-20T20:34:18.518Z,37.48
2023-01-20T20:36:48.144Z,37.93
2023-01-20T20:39:18.880Z,42.48
2023-01-20T20:41:47.838Z,37.90
2023-01-20T20:44:17.658Z,33.40
2023-01-20T20:46:48.720Z,37.67
2023-01-20T20:49:20.078Z,31.70
2023-01-20T20:51:50.344Z,33.35
2023-01-20T20:54:20.873Z,37.50
2023-01-20T20:56:49.803Z,32.78
2023-01-20T20:59:22.088Z,34.67
2023-01-20T21:01:55.109Z,38.40
2023-01-20T21:04:24.075Z,33.02
2023-01-20T21:06:52.702Z,38.15
2023-01-20T21:09:22.319Z,39.20
2023-01-20T21:11:53.800Z,37.33
2023-01-20T21:14:25.084Z,34.25
2023-01-20T21:16:54.165Z,40.23
2023-01-20T21:19:24.461Z,37.25
2023-01-20T21:21:56.125Z,34.65
2023-01-20T21:24:28.898Z,37.08
2023-01-20T21:26:57.769Z,33.70
2023-01-20T21:29:27.666Z,35.03
2023-01-20T21:31:57.361Z,38.23
2023-01-20T21:34:27.367Z,43.92
2023-01-20T21:36:57.156Z,35.25
2023-01-20T21:39:28.673Z,37.75
2023-01-20T21:41:59.547Z,38.45
2023-01-20T21:44:29.197Z,39.30
2023-01-20T21:47:05.871Z,33.00
2023-01-20T21:49:47.320Z,37.85
2023-01-20T21:52:37.237Z,41.30
2023-01-20T21:55:09.349Z,39.33
2023-01-20T21:57:40.336Z,39.15
2023-01-20T22:00:10.851Z,37.30
